Time;durP1;ratioP1;P1;durP2;ratioP2;P2;SDS_P1;SDS_P2;PMS_P1;PMS_P2;Temp;Humidity;BMP_temperature;BMP_pressure;BME280_temperature;BME280_humidity;BME280_pressure;Samples;Min_cycle;Max_cycle;Signal;HPM_P1;HPM_P2
2022/05/30 00:02:24;;;;;;;8.00;2.95;;;;;;;11.11;71.76;101336.03;4991225;28;20077;-74
2022/05/30 00:04:49;;;;;;;14.55;3.10;;;;;;;11.08;71.42;101331.59;4991137;28;20034;-74
2022/05/30 00:07:15;;;;;;;10.40;3.20;;;;;;;11.06;71.42;101324.56;4990708;28;20076;-74
2022/05/30 00:09:40;;;;;;;9.07;3.08;;;;;;;11.05;71.90;101328.00;4992010;28;20026;-74
2022/05/30 00:12:06;;;;;;;11.48;3.42;;;;;;;11.03;72.11;101325.34;4991918;28;20363;-74
2022/05/30 00:14:31;;;;;;;10.60;3.35;;;;;;;11.01;72.33;101326.13;4990670;28;20030;-74
2022/05/30 00:16:57;;;;;;;9.00;3.22;;;;;;;11.00;72.17;101324.38;4992007;28;20029;-74
2022/05/30 00:19:22;;;;;;;9.80;3.22;;;;;;;10.95;72.06;101327.72;4991046;28;20045;-74
2022/05/30 00:21:48;;;;;;;11.07;3.40;;;;;;;10.91;72.22;101325.88;4991839;28;20105;-74
2022/05/30 00:24:13;;;;;;;11.00;3.47;;;;;;;10.91;72.27;101323.25;4991128;28;20127;-74
2022/05/30 00:26:39;;;;;;;9.30;3.42;;;;;;;10.89;72.68;101324.94;4990396;28;20019;-74
2022/05/30 00:29:05;;;;;;;11.85;3.40;;;;;;;10.89;72.80;101326.66;4989623;28;20072;-74
2022/05/30 00:31:31;;;;;;;12.30;3.40;;;;;;;10.88;72.89;101325.78;4991038;28;20026;-74
2022/05/30 00:33:56;;;;;;;11.75;3.55;;;;;;;10.84;73.00;101323.91;4991689;28;20085;-74
2022/05/30 00:36:22;;;;;;;11.77;3.67;;;;;;;10.84;72.86;101317.84;4988219;28;20022;-74
2022/05/30 00:38:47;;;;;;;11.75;3.08;;;;;;;10.84;73.08;101315.22;4990252;28;20494;-74
2022/05/30 00:41:13;;;;;;;9.45;3.15;;;;;;;10.82;73.01;101317.78;4991121;28;20443;-74
2022/05/30 00:43:40;;;;;;;9.65;3.00;;;;;;;10.83;72.66;101316.91;4990764;28;20022;-74
2022/05/30 00:46:15;;;;;;;10.43;3.30;;;;;;;10.82;73.03;101316.88;4990913;28;20026;-74
2022/05/30 00:49:02;;;;;;;11.73;3.70;;;;;;;10.83;72.64;101318.66;4994367;28;20030;-74
2022/05/30 00:51:57;;;;;;;11.52;3.50;;;;;;;10.79;72.50;101315.09;4978039;28;20026;-74
2022/05/30 00:54:28;;;;;;;12.23;3.25;;;;;;;10.79;73.28;101309.88;4981810;28;20046;-74
2022/05/30 00:56:57;;;;;;;10.77;2.90;;;;;;;10.75;73.08;101308.00;4991245;28;20025;-74
2022/05/30 00:59:22;;;;;;;11.00;3.17;;;;;;;10.76;73.34;101310.66;4989016;28;20050;-74
2022/05/30 01:01:49;;;;;;;11.13;3.55;;;;;;;10.77;72.91;101306.31;4991306;28;20136;-74
2022/05/30 01:07:04;;;;;;;11.18;3.47;;;;;;;10.76;73.15;101308.06;4990941;28;20045;-74
2022/05/30 01:09:36;;;;;;;11.77;3.40;;;;;;;10.74;73.32;101307.09;4989129;28;20154;-74
2022/05/30 01:12:03;;;;;;;8.32;3.35;;;;;;;10.73;73.40;101304.44;4990267;28;20034;-74
2022/05/30 01:14:33;;;;;;;12.80;3.20;;;;;;;10.71;73.63;101299.19;4989358;28;20022;-74
2022/05/30 01:16:59;;;;;;;;;;;;;;;10.85;72.26;101293.50;4990412;28;20497;-74
2022/05/30 01:19:52;;;;;;;16.23;3.80;;;;;;;10.76;73.52;101304.53;4988966;28;20411;-74
2022/05/30 01:22:33;;;;;;;10.02;3.35;;;;;;;10.72;73.61;101300.97;4990732;28;20026;-74
2022/05/30 01:25:02;;;;;;;13.63;3.97;;;;;;;10.72;73.28;101303.59;4990100;28;20041;-74
2022/05/30 01:27:49;;;;;;;12.75;3.63;;;;;;;10.70;73.75;101310.47;4990022;28;20034;-74
2022/05/30 01:30:16;;;;;;;13.90;3.78;;;;;;;10.68;74.16;101301.72;4989236;28;20061;-74
2022/05/30 01:32:42;;;;;;;11.48;3.80;;;;;;;10.69;73.90;101300.88;4990946;28;20030;-74
2022/05/30 01:35:08;;;;;;;13.52;3.72;;;;;;;10.68;73.77;101296.50;4990115;28;20139;-74
2022/05/30 01:37:34;;;;;;;12.68;3.70;;;;;;;10.69;73.93;101292.16;4990945;28;20033;-74
2022/05/30 01:39:59;;;;;;;9.15;3.88;;;;;;;10.68;73.36;101291.28;4989931;28;20042;-74
2022/05/30 01:42:25;;;;;;;11.25;4.10;;;;;;;10.67;73.49;101288.63;4990527;28;20133;-74
2022/05/30 01:44:51;;;;;;;13.75;3.95;;;;;;;10.65;73.63;101288.59;4990225;28;20552;-74
2022/05/30 01:47:16;;;;;;;11.23;3.83;;;;;;;10.64;73.80;101285.94;4990694;28;20049;-74
2022/05/30 01:49:43;;;;;;;15.07;3.90;;;;;;;10.63;73.94;101282.47;4990190;28;20113;-74
2022/05/30 01:52:08;;;;;;;14.50;4.20;;;;;;;10.61;73.95;101284.13;4988921;28;20061;-74
2022/05/30 01:54:34;;;;;;;15.18;4.78;;;;;;;10.58;73.98;101291.84;4990655;28;20433;-74
2022/05/30 01:56:59;;;;;;;15.88;3.78;;;;;;;10.57;73.91;101279.66;4989426;28;20026;-75
2022/05/30 01:59:24;;;;;;;11.57;3.72;;;;;;;10.56;73.92;101281.38;4992594;28;20081;-74
2022/05/30 02:01:50;;;;;;;12.82;3.90;;;;;;;10.54;73.78;101276.97;4993059;28;20041;-74
2022/05/30 02:04:16;;;;;;;18.83;4.57;;;;;;;10.48;74.35;101277.66;4992563;28;20033;-74
2022/05/30 02:06:42;;;;;;;9.57;3.08;;;;;;;10.48;74.20;101276.78;4994282;28;20030;-74
2022/05/30 02:09:08;;;;;;;12.40;3.60;;;;;;;10.46;74.34;101283.63;4993346;28;20406;-74
2022/05/30 02:11:34;;;;;;;10.50;4.03;;;;;;;10.42;74.35;101282.69;4994145;28;20026;-74
2022/05/30 02:13:59;;;;;;;10.02;3.30;;;;;;;10.39;74.56;101279.97;4993239;28;20041;-74
2022/05/30 02:19:09;;;;;;;12.05;3.85;;;;;;;10.35;74.87;101276.38;4994302;28;20044;-74
2022/05/30 02:21:36;;;;;;;14.77;4.30;;;;;;;10.34;75.09;101278.94;4994029;28;20018;-74
2022/05/30 02:24:06;;;;;;;11.23;3.90;;;;;;;10.36;74.97;101283.38;4992013;28;20456;-74
2022/05/30 02:26:34;;;;;;;12.32;4.22;;;;;;;10.32;75.16;101280.59;4993815;28;20022;-74
2022/05/30 02:28:59;;;;;;;12.98;4.78;;;;;;;10.32;75.58;101277.97;4993282;28;20030;-74
2022/05/30 02:31:25;;;;;;;12.50;4.55;;;;;;;10.31;75.46;101279.72;4993672;28;20508;-74
2022/05/30 02:36:40;;;;;;;12.50;4.20;;;;;;;10.28;75.68;101282.19;4990159;28;20053;-74
2022/05/30 02:39:11;;;;;;;16.85;5.00;;;;;;;10.27;75.56;101283.06;4994618;28;20022;-74
2022/05/30 02:41:36;;;;;;;13.60;4.38;;;;;;;10.22;75.68;101269.84;4993327;28;20116;-74
2022/05/30 02:44:03;;;;;;;14.18;4.85;;;;;;;10.17;75.76;101270.56;4996603;28;20433;-74
2022/05/30 02:46:29;;;;;;;12.27;4.55;;;;;;;10.13;75.82;101268.69;4992934;28;20034;-74
2022/05/30 02:48:54;;;;;;;15.02;5.03;;;;;;;10.10;76.07;101277.28;4992721;28;20440;-74
2022/05/30 02:51:20;;;;;;;14.05;4.20;;;;;;;10.07;76.04;101267.66;4993356;28;20045;-74
2022/05/30 02:53:45;;;;;;;10.45;4.65;;;;;;;10.05;76.08;101269.34;4993624;28;20497;-74
2022/05/30 02:56:12;;;;;;;13.93;5.10;;;;;;;10.03;76.07;101267.50;4993242;28;20106;-74
2022/05/30 02:58:37;;;;;;;15.73;5.07;;;;;;;10.01;76.00;101277.00;4996143;28;20060;-74
2022/05/30 03:01:04;;;;;;;17.70;5.00;;;;;;;9.97;76.00;101272.53;4999127;28;20102;-74
2022/05/30 03:03:30;;;;;;;13.57;5.40;;;;;;;9.94;76.26;101270.69;4993623;28;20040;-74
2022/05/30 03:05:55;;;;;;;13.65;5.35;;;;;;;9.94;75.88;101272.44;4991904;28;20478;-74
2022/05/30 03:08:20;;;;;;;13.02;5.40;;;;;;;9.94;75.72;101280.25;4992165;28;20537;-74
2022/05/30 03:10:46;;;;;;;13.63;5.35;;;;;;;9.90;75.89;101272.31;4993095;28;20021;-74
2022/05/30 03:13:12;;;;;;;15.35;5.25;;;;;;;9.87;76.23;101272.19;4992858;28;20232;-74
2022/05/30 03:15:37;;;;;;;15.30;5.28;;;;;;;9.87;76.58;101279.13;4991870;28;20026;-74
2022/05/30 03:18:03;;;;;;;13.63;5.80;;;;;;;9.87;75.96;101276.53;4992954;28;20037;-74
2022/05/30 03:20:29;;;;;;;11.75;4.95;;;;;;;9.83;75.92;101283.34;4991594;28;20517;-74
2022/05/30 03:22:56;;;;;;;16.98;5.53;;;;;;;9.82;75.90;101283.28;4992886;28;20073;-74
2022/05/30 03:25:21;;;;;;;12.18;5.70;;;;;;;9.81;75.82;101282.41;4989571;28;20034;-74
2022/05/30 03:27:46;;;;;;;17.35;5.55;;;;;;;9.81;75.80;101278.94;4989580;28;20102;-74
2022/05/30 03:30:12;;;;;;;21.35;6.55;;;;;;;9.79;75.83;101283.19;4991991;28;20053;-74
2022/05/30 03:32:38;;;;;;;16.08;6.10;;;;;;;9.79;76.24;101276.28;4992414;28;20493;-74
2022/05/30 03:35:04;;;;;;;17.85;6.72;;;;;;;9.81;76.50;101284.16;4992244;28;20030;-74
2022/05/30 03:37:30;;;;;;;17.80;6.70;;;;;;;9.80;76.90;101285.84;5254930;23;20413;-74
2022/05/30 03:39:55;;;;;;;18.70;6.70;;;;;;;9.83;76.66;101282.47;4967914;28;20502;-74
2022/05/30 03:42:20;;;;;;;19.75;7.28;;;;;;;9.84;76.42;101292.06;4971976;28;20469;-74
2022/05/30 03:44:46;;;;;;;17.98;7.63;;;;;;;9.84;76.33;101295.53;4972839;28;20031;-74
2022/05/30 03:47:11;;;;;;;18.20;7.60;;;;;;;9.86;76.31;101301.69;4972483;28;20023;-74
2022/05/30 03:49:37;;;;;;;21.95;7.63;;;;;;;9.82;76.81;101299.81;4972915;28;20462;-74
2022/05/30 03:52:03;;;;;;;19.45;7.60;;;;;;;9.86;76.30;101304.28;4970391;28;20027;-74
2022/05/30 03:54:29;;;;;;;20.20;7.30;;;;;;;9.84;76.33;101292.94;4972626;28;20054;-74
2022/05/30 03:56:54;;;;;;;18.15;7.32;;;;;;;9.83;76.75;101290.28;4972281;28;20061;-74
2022/05/30 03:59:20;;;;;;;18.58;7.53;;;;;;;9.80;76.80;101296.25;4971804;28;20073;-74
2022/05/30 04:01:45;;;;;;;18.60;7.88;;;;;;;9.78;77.05;101297.94;4972207;28;20482;-74
2022/05/30 04:04:14;;;;;;;20.15;7.32;;;;;;;9.75;77.31;101290.91;4972407;28;20034;-74
2022/05/30 04:06:40;;;;;;;18.00;7.43;;;;;;;9.75;77.00;101293.50;4970819;28;20035;-74
2022/05/30 04:09:06;;;;;;;21.75;7.43;;;;;;;9.77;77.07;101293.56;4971776;28;20034;-74
2022/05/30 04:11:32;;;;;;;20.40;7.18;;;;;;;9.75;77.11;101290.91;4972559;28;20110;-74
2022/05/30 04:13:57;;;;;;;20.92;7.70;;;;;;;9.81;77.42;101289.34;4971610;28;20105;-74
2022/05/30 04:16:23;;;;;;;21.17;7.97;;;;;;;9.80;77.39;101291.06;4972352;28;20027;-74
2022/05/30 04:18:48;;;;;;;18.75;7.93;;;;;;;9.80;77.45;101291.06;4970797;28;20018;-74
2022/05/30 04:21:13;;;;;;;20.67;7.93;;;;;;;9.84;77.78;101285.13;4971012;28;20034;-74
2022/05/30 04:23:42;;;;;;;20.23;7.47;;;;;;;9.86;77.99;101290.38;4970588;28;20035;-74
2022/05/30 04:26:10;;;;;;;24.05;7.85;;;;;;;9.88;78.05;101286.13;4972217;28;20026;-74
2022/05/30 04:28:36;;;;;;;21.35;7.95;;;;;;;9.87;77.99;101287.81;4970729;28;20038;-74
2022/05/30 04:31:06;;;;;;;29.73;9.52;;;;;;;9.87;77.87;101297.34;4971522;28;20038;-74
2022/05/30 04:33:33;;;;;;;19.73;8.75;;;;;;;9.87;78.21;101290.44;4972258;28;20089;-74
2022/05/30 04:35:58;;;;;;;22.98;9.48;;;;;;;9.90;78.16;101290.53;4971828;28;20609;-74
2022/05/30 04:38:24;;;;;;;21.02;8.75;;;;;;;9.92;78.10;101296.69;4971963;28;20050;-74
2022/05/30 04:40:49;;;;;;;21.95;9.15;;;;;;;9.91;78.09;101289.69;4969597;28;20058;-74
2022/05/30 04:43:14;;;;;;;27.58;9.43;;;;;;;9.89;77.99;101296.59;4972000;28;20391;-74
2022/05/30 04:45:40;;;;;;;21.75;8.60;;;;;;;9.87;77.78;101297.34;4969864;28;20058;-74
2022/05/30 04:48:05;;;;;;;25.02;8.30;;;;;;;9.87;77.47;101303.44;4971263;28;20022;-74
2022/05/30 04:50:30;;;;;;;23.10;8.23;;;;;;;9.87;77.51;101306.03;4970998;28;20039;-74
2022/05/30 04:52:56;;;;;;;22.27;8.23;;;;;;;9.86;77.13;101304.28;4971308;28;20046;-74
2022/05/30 04:55:21;;;;;;;21.98;8.68;;;;;;;9.87;76.96;101303.44;4970153;28;20022;-74
2022/05/30 04:57:49;;;;;;;22.23;8.38;;;;;;;9.86;76.87;101314.72;4971358;28;20379;-74
2022/05/30 05:00:17;;;;;;;21.75;8.70;;;;;;;9.83;77.07;101313.69;4970983;28;20077;-74
2022/05/30 05:02:43;;;;;;;23.08;8.70;;;;;;;9.80;77.21;101308.41;4969492;28;20041;-74
2022/05/30 05:05:09;;;;;;;25.55;9.07;;;;;;;9.79;77.30;101312.72;4970809;28;20026;-74
2022/05/30 05:07:40;;;;;;;27.58;9.93;;;;;;;9.79;77.99;101311.81;4969698;28;20505;-74
2022/05/30 05:10:26;;;;;;;27.73;10.13;;;;;;;9.83;78.08;101304.16;4971460;28;20031;-74
2022/05/30 05:12:52;;;;;;;28.75;11.43;;;;;;;9.84;78.32;101308.53;4971025;28;20038;-74
2022/05/30 05:15:17;;;;;;;27.40;11.40;;;;;;;9.89;77.55;101311.28;4971420;28;20022;-74
2022/05/30 05:17:42;;;;;;;29.08;11.90;;;;;;;9.94;78.31;101320.16;4971118;28;20172;-74
2022/05/30 05:20:08;;;;;;;31.25;10.98;;;;;;;9.98;77.29;101309.03;4968734;28;20069;-74
2022/05/30 05:22:33;;;;;;;28.05;11.25;;;;;;;10.02;77.55;101312.59;4971065;28;20031;-74
2022/05/30 05:24:59;;;;;;;36.20;11.38;;;;;;;10.06;77.86;101314.47;4970348;28;20058;-74
2022/05/30 05:27:25;;;;;;;30.38;11.85;;;;;;;10.08;77.95;101313.69;4970785;28;20518;-74
2022/05/30 05:29:54;;;;;;;31.63;12.27;;;;;;;10.08;77.79;101318.03;4971776;28;20038;-74
2022/05/30 05:32:19;;;;;;;30.85;12.05;;;;;;;10.14;77.26;101317.31;4968331;28;20054;-74
2022/05/30 05:34:45;;;;;;;26.27;11.02;;;;;;;10.16;77.48;101315.66;4973320;28;20027;-74
2022/05/30 05:37:10;;;;;;;32.03;11.98;;;;;;;10.17;77.90;101317.44;4975297;28;20015;-74
2022/05/30 05:39:35;;;;;;;32.15;12.68;;;;;;;10.22;77.54;101321.94;4974453;28;20055;-74
2022/05/30 05:42:01;;;;;;;30.58;12.30;;;;;;;10.23;77.81;101321.13;4990043;28;20520;-74
2022/05/30 05:44:26;;;;;;;27.77;11.88;;;;;;;10.26;78.10;101323.81;4974143;28;20037;-74
2022/05/30 05:46:55;;;;;;;29.58;10.80;;;;;;;10.26;77.34;101318.59;4975026;28;20085;-74
2022/05/30 05:49:21;;;;;;;22.88;8.68;;;;;;;10.32;75.92;101322.25;4973380;28;20494;-74
2022/05/30 05:51:52;;;;;;;28.80;9.57;;;;;;;10.36;75.67;101327.66;4972604;28;20041;-74
2022/05/30 05:54:17;;;;;;;28.42;8.30;;;;;;;10.40;75.50;101326.03;4975007;28;20074;-74
2022/05/30 05:56:42;;;;;;;26.02;8.82;;;;;;;10.44;75.70;101334.00;4973550;28;20018;-74
2022/05/30 05:59:08;;;;;;;20.30;7.15;;;;;;;10.52;73.49;101326.41;4975064;28;20348;-74
2022/05/30 06:01:34;;;;;;;21.58;7.53;;;;;;;10.62;74.04;101332.81;4973524;28;20033;-74
2022/05/30 06:04:03;;;;;;;21.73;7.28;;;;;;;10.70;74.50;101330.44;4972038;28;20058;-74
2022/05/30 06:06:29;;;;;;;18.88;7.45;;;;;;;10.79;74.21;101333.34;4974020;28;20081;-74
2022/05/30 06:08:56;;;;;;;21.65;7.50;;;;;;;10.86;74.49;101327.47;4974691;28;20493;-74
2022/05/30 06:11:22;;;;;;;30.70;7.07;;;;;;;10.92;72.99;101335.47;4973943;28;20075;-74
2022/05/30 06:13:49;;;;;;;20.38;6.10;;;;;;;10.99;72.84;101341.72;4974914;28;20035;-74
2022/05/30 06:16:27;;;;;;;23.23;6.32;;;;;;;11.05;72.23;101328.91;4973987;28;20026;-74
2022/05/30 06:18:54;;;;;;;20.23;6.07;;;;;;;11.12;73.28;101335.16;4968815;28;20517;-74
2022/05/30 06:21:23;;;;;;;17.73;5.97;;;;;;;11.19;71.99;101333.63;4970661;28;20069;-74
2022/05/30 06:23:48;;;;;;;19.73;5.43;;;;;;;11.22;71.17;101334.59;4973327;28;20031;-74
2022/05/30 06:26:14;;;;;;;17.90;5.32;;;;;;;11.29;71.74;101335.66;4973687;28;20077;-71
2022/05/30 06:28:40;;;;;;;18.08;5.60;;;;;;;11.33;71.56;101340.13;4974510;28;20057;-71
2022/05/30 06:31:08;;;;;;;14.68;4.40;;;;;;;11.41;70.61;101342.94;4972688;28;20037;-71
2022/05/30 06:33:33;;;;;;;14.80;4.40;;;;;;;11.46;69.53;101342.22;4971911;28;20410;-71
2022/05/30 06:35:59;;;;;;;13.30;4.05;;;;;;;11.51;68.95;101333.66;4973798;28;20015;-71
2022/05/30 06:38:24;;;;;;;13.63;4.50;;;;;;;11.54;68.44;101332.00;4973833;28;20094;-71
2022/05/30 06:40:49;;;;;;;11.38;4.65;;;;;;;11.59;68.20;101337.38;4973618;28;20086;-71
2022/05/30 06:43:14;;;;;;;14.23;4.70;;;;;;;11.65;67.58;101338.41;4973781;28;20505;-71
2022/05/30 06:45:47;;;;;;;15.35;5.18;;;;;;;11.66;68.10;101340.16;4972899;28;20034;-71
2022/05/30 06:48:13;;;;;;;16.10;4.50;;;;;;;11.70;67.38;101335.03;4960455;28;20030;-71
2022/05/30 06:50:38;;;;;;;13.75;3.60;;;;;;;11.74;66.69;101335.16;4973926;28;20073;-71
2022/05/30 06:53:04;;;;;;;15.35;3.90;;;;;;;11.79;66.35;101332.69;4972721;28;20490;-71
2022/05/30 06:55:31;;;;;;;15.57;3.67;;;;;;;11.84;68.48;101342.38;4971730;28;20027;-71
2022/05/30 06:58:14;;;;;;;12.88;3.38;;;;;;;11.90;65.50;101344.28;4973018;28;20047;-74
2022/05/30 07:00:42;;;;;;;10.52;3.17;;;;;;;11.95;64.14;101347.06;4970768;28;20145;-75
2022/05/30 07:03:07;;;;;;;12.27;3.92;;;;;;;12.00;65.86;101345.44;4987742;28;20026;-74
2022/05/30 07:05:34;;;;;;;12.82;3.40;;;;;;;12.04;65.03;101351.63;4972285;28;20550;-74
2022/05/30 07:08:00;;;;;;;12.75;3.75;;;;;;;12.10;64.60;101349.16;4956009;28;20426;-74
2022/05/30 07:10:27;;;;;;;8.30;3.40;;;;;;;12.16;64.53;101351.94;4968277;28;20041;-75
2022/05/30 07:12:53;;;;;;;11.38;4.35;;;;;;;12.16;63.41;101347.56;4971944;28;20034;-75
2022/05/30 07:15:18;;;;;;;14.93;4.70;;;;;;;12.15;64.64;101345.84;4972424;28;20033;-75
2022/05/30 07:17:44;;;;;;;14.27;4.05;;;;;;;12.15;64.14;101343.22;4972139;28;20114;-75
2022/05/30 07:20:11;;;;;;;13.98;3.78;;;;;;;12.11;65.91;101343.97;4971666;28;20446;-74
2022/05/30 07:22:36;;;;;;;12.38;3.80;;;;;;;12.10;66.24;101347.44;4972512;28;20023;-75
2022/05/30 07:25:02;;;;;;;14.70;4.50;;;;;;;12.07;66.43;101351.72;4970894;28;20077;-75
2022/05/30 07:27:27;;;;;;;12.25;3.60;;;;;;;12.06;66.11;101350.81;4971284;28;20034;-75
2022/05/30 07:29:52;;;;;;;13.10;3.78;;;;;;;12.03;65.77;101350.72;4972006;28;20027;-75
2022/05/30 07:32:18;;;;;;;8.88;2.80;;;;;;;12.00;65.21;101350.66;4972239;28;20042;-75
2022/05/30 07:34:43;;;;;;;9.52;2.90;;;;;;;11.98;64.75;101353.22;4971368;28;20393;-75
2022/05/30 07:37:09;;;;;;;10.88;2.78;;;;;;;11.97;66.07;101356.69;4971349;28;20034;-75
2022/05/30 07:39:38;;;;;;;10.00;3.38;;;;;;;11.96;65.53;101349.72;4972070;28;20043;-75
2022/05/30 07:42:04;;;;;;;;;;;;;;;12.04;65.57;101355.13;4972153;28;20401;-74
2022/05/30 07:44:30;;;;;;;8.45;2.53;;;;;;;11.98;61.69;101350.63;4971312;28;19974;-74
2022/05/30 07:46:56;;;;;;;8.63;3.60;;;;;;;12.00;60.51;101348.03;4971737;28;20441;-74
2022/05/30 07:49:21;;;;;;;11.45;2.60;;;;;;;12.06;60.06;101349.94;4969957;28;20102;-75
2022/05/30 07:51:46;;;;;;;11.45;2.35;;;;;;;12.11;59.33;101346.59;4970511;28;20033;-75
2022/05/30 07:54:12;;;;;;;10.90;2.90;;;;;;;12.17;61.87;101343.25;4970013;28;20030;-75
2022/05/30 07:56:37;;;;;;;9.73;2.30;;;;;;;12.16;57.07;101344.09;4972080;28;20018;-75
2022/05/30 07:59:03;;;;;;;6.18;1.73;;;;;;;12.18;58.93;101339.81;4971950;28;20143;-75
2022/05/30 08:01:28;;;;;;;12.65;2.10;;;;;;;12.21;61.73;101342.50;4967462;28;20058;-74
2022/05/30 08:03:54;;;;;;;8.40;1.85;;;;;;;12.27;60.82;101340.03;4971425;28;20035;-75
2022/05/30 08:06:23;;;;;;;8.05;2.67;;;;;;;12.32;62.30;101347.97;4969754;28;20035;-74
2022/05/30 08:08:49;;;;;;;;;;;;;;;12.40;63.56;101346.44;4971898;28;20113;-74
2022/05/30 08:11:16;;;;;;;6.90;2.58;;;;;;;12.39;61.35;101349.00;4971050;28;20326;-75
2022/05/30 08:13:43;;;;;;;5.93;2.65;;;;;;;12.39;59.76;101344.66;4971823;28;20486;-75
2022/05/30 08:16:08;;;;;;;6.53;3.10;;;;;;;12.41;59.57;101352.53;4970531;28;20023;-75
2022/05/30 08:18:35;;;;;;;6.72;2.90;;;;;;;12.45;60.25;101343.94;4972329;28;20474;-75
2022/05/30 08:21:02;;;;;;;8.80;3.50;;;;;;;12.49;57.79;101345.78;4971407;28;20272;-74
2022/05/30 08:23:27;;;;;;;10.38;3.63;;;;;;;12.57;61.45;101345.94;4968979;28;20057;-74
2022/05/30 08:25:54;;;;;;;9.27;3.30;;;;;;;12.63;61.46;101344.38;4971661;28;20093;-75
2022/05/30 08:28:20;;;;;;;9.55;2.85;;;;;;;12.66;60.63;101339.22;4972182;28;20035;-75
2022/05/30 08:30:45;;;;;;;8.95;2.83;;;;;;;12.72;59.80;101348.06;4971908;28;20081;-75
2022/05/30 08:33:13;;;;;;;8.95;3.47;;;;;;;12.77;61.93;101347.28;4970841;28;20042;-75
2022/05/30 08:35:45;;;;;;;8.43;3.42;;;;;;;12.88;65.59;101344.91;4975046;28;20038;-75
2022/05/30 08:38:12;;;;;;;7.65;2.72;;;;;;;12.94;58.67;101339.81;4966891;28;20083;-75
2022/05/30 08:43:34;;;;;;;10.43;3.25;;;;;;;13.08;56.89;101341.84;4958959;28;20498;-74
2022/05/30 08:46:18;;;;;;;7.93;3.30;;;;;;;13.12;57.62;101338.44;4969764;28;20034;-76
2022/05/30 08:49:06;;;;;;;8.07;2.92;;;;;;;13.15;59.31;101343.72;4969365;28;20109;-75
2022/05/30 08:51:37;;;;;;;7.38;2.83;;;;;;;13.17;59.84;101350.78;4971103;28;20434;-75
2022/05/30 08:54:16;;;;;;;8.73;3.20;;;;;;;13.20;60.82;101355.19;4968595;28;20031;-75
2022/05/30 08:56:44;;;;;;;11.18;4.00;;;;;;;13.20;61.32;101355.19;4967016;28;20612;-75
2022/05/30 08:59:33;;;;;;;10.85;4.18;;;;;;;13.19;57.63;101356.94;4971087;28;20490;-75
2022/05/30 09:02:09;;;;;;;13.15;3.60;;;;;;;13.18;59.78;101356.91;4969852;28;20042;-74
2022/05/30 09:04:41;;;;;;;10.50;3.42;;;;;;;13.16;60.12;101350.75;4971296;28;20029;-76
2022/05/30 09:07:16;;;;;;;10.27;3.55;;;;;;;13.16;59.92;101355.97;4970448;28;20065;-75
2022/05/30 09:09:45;;;;;;;12.05;3.58;;;;;;;13.15;60.35;101359.44;4968817;28;20407;-75
2022/05/30 09:12:19;;;;;;;10.25;3.50;;;;;;;13.18;61.08;101359.53;4970515;28;20081;-75
2022/05/30 09:14:53;;;;;;;10.63;4.10;;;;;;;13.22;60.33;101357.00;4969674;28;20035;-75
2022/05/30 09:17:27;;;;;;;8.90;3.90;;;;;;;13.27;61.20;101359.72;4963110;28;20081;-75
2022/05/30 09:19:54;;;;;;;9.07;3.97;;;;;;;13.31;57.47;101358.03;4970880;28;20056;-75
2022/05/30 09:22:21;;;;;;;10.10;3.80;;;;;;;13.37;58.14;101351.22;4971565;28;20031;-75
2022/05/30 09:25:55;;;;;;;9.95;3.30;;;;;;;13.46;57.01;101360.13;4969107;28;20070;-75
2022/05/30 09:27:31;;;;;;;7.60;2.65;;;;;;;13.53;55.57;101356.78;4965138;28;20046;-75
2022/05/30 09:30:00;;;;;;;7.05;2.60;;;;;;;13.64;58.47;101351.72;4969647;28;20398;-76
2022/05/30 09:32:36;;;;;;;6.80;2.53;;;;;;;13.68;54.83;101350.94;4971331;28;20035;-75
2022/05/30 09:35:26;;;;;;;5.95;1.98;;;;;;;13.70;53.96;101351.84;4968079;28;20373;-76
2022/05/30 09:38:30;;;;;;;7.38;2.30;;;;;;;13.76;53.75;101353.69;4967629;28;20054;-75
2022/05/30 09:40:57;;;;;;;4.47;2.10;;;;;;;13.80;52.53;101345.94;4967254;28;20054;-76
2022/05/30 09:43:43;;;;;;;9.80;2.40;;;;;;;13.92;57.03;101353.13;4970059;28;20023;-75
2022/05/30 09:46:26;;;;;;;5.05;1.98;;;;;;;14.01;54.29;101348.06;4967238;28;20336;-75
2022/05/30 09:49:15;;;;;;;4.65;2.30;;;;;;;14.06;53.45;101351.66;4970653;28;20038;-76
2022/05/30 09:51:43;;;;;;;11.02;2.72;;;;;;;14.11;51.94;101353.44;4955506;28;20024;-75
2022/05/30 09:54:34;;;;;;;6.50;2.63;;;;;;;14.18;52.94;101352.69;4969798;28;20494;-76
2022/05/30 09:57:10;;;;;;;8.95;3.30;;;;;;;14.22;50.13;101355.41;4970330;28;20039;-75
2022/05/30 09:59:40;;;;;;;7.60;2.90;;;;;;;14.22;48.49;101349.25;4970380;28;20022;-76
2022/05/30 10:02:24;;;;;;;7.53;3.00;;;;;;;14.29;52.19;101352.88;4971327;28;20106;-76
2022/05/30 10:05:21;;;;;;;10.20;3.30;;;;;;;14.31;51.53;101349.44;4970560;28;20034;-76
2022/05/30 10:07:56;;;;;;;8.43;3.10;;;;;;;14.35;54.77;101346.00;4970613;28;20034;-75
2022/05/30 10:10:24;;;;;;;8.15;2.97;;;;;;;14.32;52.11;101340.69;4968637;28;20050;-75
2022/05/30 10:12:53;;;;;;;6.88;2.97;;;;;;;14.33;51.87;101347.72;4970025;28;20057;-75
2022/05/30 10:15:30;;;;;;;8.63;3.05;;;;;;;14.33;52.34;101342.47;4969973;28;20490;-75
2022/05/30 10:18:16;;;;;;;9.30;3.30;;;;;;;14.31;52.93;101345.91;4971079;28;20359;-77
2022/05/30 10:21:12;;;;;;;7.75;3.17;;;;;;;14.29;53.43;101352.88;4971014;28;20141;-75
2022/05/30 10:29:46;;;;;;;10.07;3.08;;;;;;;14.12;54.42;101342.09;4974054;28;20045;-75
2022/05/30 10:32:27;;;;;;;8.43;3.17;;;;;;;14.09;54.46;101346.44;4972512;28;20023;-75
2022/05/30 10:35:13;;;;;;;9.15;3.50;;;;;;;14.08;54.02;101351.66;4973883;28;20041;-75
2022/05/30 10:37:41;;;;;;;9.07;2.80;;;;;;;14.06;53.19;101354.25;4961262;28;20578;-74
2022/05/30 10:40:33;;;;;;;7.97;3.17;;;;;;;14.06;54.50;101358.59;4972111;28;20042;-75
2022/05/30 10:43:04;;;;;;;8.65;3.30;;;;;;;14.07;53.80;101360.38;4972577;28;20039;-76
2022/05/30 10:46:11;;;;;;;7.47;3.15;;;;;;;14.04;53.63;101360.34;4973209;28;20033;-76
2022/05/30 10:49:01;;;;;;;9.00;3.10;;;;;;;14.05;55.15;101360.34;4959498;28;20058;-76
2022/05/30 10:51:35;;;;;;;7.20;3.05;;;;;;;14.06;53.90;101364.75;4974155;28;20018;-76
2022/05/30 10:54:17;;;;;;;8.30;3.05;;;;;;;14.08;54.52;101370.00;4971640;28;20110;-76
2022/05/30 10:56:49;;;;;;;6.28;2.92;;;;;;;14.11;52.75;101369.16;4973828;28;20030;-75
2022/05/30 10:59:23;;;;;;;10.77;2.67;;;;;;;14.09;51.42;101371.75;4971410;28;20058;-75
2022/05/30 11:02:00;;;;;;;11.35;3.72;;;;;;;14.14;53.26;101367.50;4973126;28;20042;-75
2022/05/30 11:04:50;;;;;;;7.20;3.13;;;;;;;14.20;53.73;101366.72;4970787;28;20045;-75
2022/05/30 11:07:50;;;;;;;10.15;4.22;;;;;;;14.32;53.97;101364.28;4973862;28;20509;-77
2022/05/30 11:10:24;;;;;;;11.52;3.63;;;;;;;14.40;52.12;101364.44;4972147;28;20043;-76
2022/05/30 11:13:10;;;;;;;8.98;3.50;;;;;;;14.46;51.46;101358.41;4972649;28;20049;-76
2022/05/30 11:15:45;;;;;;;7.07;2.80;;;;;;;14.46;52.69;101359.28;4960076;28;20034;-76
2022/05/30 11:18:23;;;;;;;5.40;2.10;;;;;;;14.43;50.08;101360.09;4972197;28;20034;-76
2022/05/30 11:21:00;;;;;;;6.87;2.10;;;;;;;14.44;49.92;101361.88;4973944;28;20019;-76
2022/05/30 11:23:26;;;;;;;7.55;1.80;;;;;;;14.42;47.14;101358.38;4972657;28;20023;-76
2022/05/30 11:26:09;;;;;;;4.40;1.85;;;;;;;14.43;48.61;101356.63;4973542;28;20046;-76
2022/05/30 11:28:44;;;;;;;9.77;2.38;;;;;;;14.45;50.95;101357.50;4972806;28;20117;-75
2022/05/30 11:31:20;;;;;;;8.13;2.30;;;;;;;14.45;49.56;101354.88;4972112;28;20106;-76
2022/05/30 11:34:11;;;;;;;9.68;2.00;;;;;;;14.50;52.57;101355.84;4972708;28;20031;-77
2022/05/30 11:37:10;;;;;;;6.82;1.92;;;;;;;14.55;54.37;101364.66;4970584;28;20089;-74
2022/05/30 11:40:01;;;;;;;6.85;2.10;;;;;;;14.56;55.75;101363.81;4970912;28;20129;-74
2022/05/30 11:42:57;;;;;;;6.63;2.22;;;;;;;14.56;52.66;101363.81;4973211;28;20054;-75
2022/05/30 11:45:42;;;;;;;7.75;2.50;;;;;;;14.53;51.60;101365.50;4968742;28;20031;-75
2022/05/30 11:48:14;;;;;;;5.30;2.40;;;;;;;14.46;50.49;101361.03;4973034;28;20035;-75
2022/05/30 11:50:50;;;;;;;11.20;2.80;;;;;;;14.47;52.25;101370.63;4972411;28;20026;-76
2022/05/30 11:53:34;;;;;;;6.68;2.42;;;;;;;14.47;52.25;101365.41;4971854;28;20045;-75